createdAt,value
2022-11-14T00:02:41.691Z,15.25
2022-11-14T00:05:29.021Z,15.23
2022-11-14T00:08:18.629Z,15.21
2022-11-14T00:11:05.986Z,15.20
2022-11-14T00:13:54.851Z,15.18
2022-11-14T00:16:41.786Z,15.16
2022-11-14T00:19:29.553Z,15.14
2022-11-14T00:22:16.774Z,15.14
2022-11-14T00:25:04.003Z,15.10
2022-11-14T00:27:51.374Z,15.08
2022-11-14T00:30:40.364Z,15.09
2022-11-14T00:33:27.365Z,15.07
2022-11-14T00:36:14.184Z,15.04
2022-11-14T00:39:01.179Z,15.02
2022-11-14T00:41:48.365Z,14.99
2022-11-14T00:44:35.950Z,14.97
2022-11-14T00:47:24.769Z,14.96
2022-11-14T00:50:12.367Z,14.96
2022-11-14T00:52:59.439Z,14.94
2022-11-14T00:55:46.674Z,14.94
2022-11-14T00:58:33.623Z,14.91
2022-11-14T01:01:21.376Z,14.90
2022-11-14T01:04:09.450Z,14.89
2022-11-14T01:06:56.773Z,14.88
2022-11-14T01:09:45.080Z,14.87
2022-11-14T01:12:32.269Z,14.85
2022-11-14T01:15:19.429Z,14.83
2022-11-14T01:18:06.701Z,14.81
2022-11-14T01:20:55.535Z,14.78
2022-11-14T01:23:42.894Z,14.77
2022-11-14T01:26:29.811Z,14.76
2022-11-14T01:29:17.132Z,14.73
2022-11-14T01:32:04.032Z,14.70
2022-11-14T01:34:51.581Z,14.68
2022-11-14T01:37:40.036Z,14.67
2022-11-14T01:40:27.764Z,14.65
2022-11-14T01:43:39.708Z,14.64
2022-11-14T01:46:31.109Z,14.60
2022-11-14T01:49:22.935Z,14.60
2022-11-14T01:52:13.585Z,14.57
2022-11-14T01:55:09.146Z,14.55
2022-11-14T01:57:58.392Z,14.52
2022-11-14T02:00:46.490Z,14.51
2022-11-14T02:03:37.744Z,14.49
2022-11-14T02:06:29.265Z,14.48
2022-11-14T02:09:16.726Z,14.44
2022-11-14T02:12:08.656Z,14.42
2022-11-14T02:14:58.634Z,14.40
2022-11-14T02:17:46.060Z,14.37
2022-11-14T02:20:43.098Z,14.34
2022-11-14T02:23:33.005Z,14.32
2022-11-14T02:26:21.645Z,14.29
2022-11-14T02:29:12.214Z,14.27
2022-11-14T02:31:59.172Z,14.25
2022-11-14T02:34:45.932Z,14.24
2022-11-14T02:37:34.710Z,14.24
2022-11-14T02:40:22.275Z,14.23
2022-11-14T02:43:09.831Z,14.20
2022-11-14T02:46:00.287Z,14.18
2022-11-14T02:48:51.434Z,14.15
2022-11-14T02:51:38.397Z,14.14
2022-11-14T02:54:27.139Z,14.13
2022-11-14T02:57:14.181Z,14.12
2022-11-14T03:00:01.463Z,14.11
2022-11-14T03:02:48.847Z,14.10
2022-11-14T03:05:36.153Z,14.09
2022-11-14T03:08:23.582Z,14.04
2022-11-14T03:11:12.593Z,14.04
2022-11-14T03:14:00.903Z,14.04
2022-11-14T03:16:48.467Z,14.00
2022-11-14T03:19:35.694Z,14.00
2022-11-14T03:22:22.913Z,13.98
2022-11-14T03:25:10.342Z,13.98
2022-11-14T03:27:59.388Z,13.97
2022-11-14T03:30:47.930Z,13.95
2022-11-14T03:33:35.510Z,13.91
2022-11-14T03:36:22.691Z,13.88
2022-11-14T03:39:09.956Z,13.85
2022-11-14T03:41:57.111Z,13.84
2022-11-14T03:44:45.662Z,13.81
2022-11-14T03:47:32.869Z,13.78
2022-11-14T03:50:20.059Z,13.80
2022-11-14T03:53:07.843Z,13.80
2022-11-14T03:55:55.058Z,13.80
2022-11-14T03:58:42.313Z,13.79
2022-11-14T04:01:31.026Z,13.79
2022-11-14T04:04:18.178Z,13.80
2022-11-14T04:07:06.376Z,13.77
2022-11-14T04:09:53.627Z,13.79
2022-11-14T04:12:40.808Z,13.77
2022-11-14T04:15:30.894Z,13.77
2022-11-14T04:18:19.488Z,13.76
2022-11-14T04:21:06.785Z,13.76
2022-11-14T04:23:53.688Z,13.76
2022-11-14T04:26:40.909Z,13.74
2022-11-14T04:29:27.963Z,13.73
2022-11-14T04:32:15.017Z,13.73
2022-11-14T04:35:03.792Z,13.73
2022-11-14T04:37:51.055Z,13.71
2022-11-14T04:40:38.588Z,13.70
2022-11-14T04:43:25.426Z,13.69
2022-11-14T04:46:12.702Z,13.68
2022-11-14T04:48:59.589Z,13.67
2022-11-14T04:51:47.842Z,13.67
2022-11-14T04:54:34.846Z,13.65
2022-11-14T04:57:22.385Z,13.63
2022-11-14T05:00:11.796Z,13.62
2022-11-14T05:03:00.989Z,13.61
2022-11-14T05:05:47.895Z,13.58
2022-11-14T05:08:37.402Z,13.58
2022-11-14T05:11:28.992Z,13.56
2022-11-14T05:14:16.691Z,13.55
2022-11-14T05:17:03.664Z,13.56
2022-11-14T05:19:51.157Z,13.54
2022-11-14T05:22:38.251Z,13.53
2022-11-14T05:25:26.872Z,13.53
2022-11-14T05:28:13.877Z,13.52
2022-11-14T05:31:04.996Z,13.51
2022-11-14T05:33:52.512Z,13.50
2022-11-14T05:36:39.711Z,13.49
2022-11-14T05:39:26.933Z,13.49
2022-11-14T05:42:15.426Z,13.47
2022-11-14T05:45:02.888Z,13.44
2022-11-14T05:47:50.142Z,13.44
2022-11-14T05:50:36.914Z,13.43
2022-11-14T05:53:24.409Z,13.40
2022-11-14T05:56:13.449Z,13.40
2022-11-14T05:59:02.580Z,13.38
2022-11-14T06:01:49.978Z,13.36
2022-11-14T06:04:37.365Z,13.34
2022-11-14T06:07:24.665Z,13.33
2022-11-14T06:10:11.867Z,13.33
2022-11-14T06:12:58.668Z,13.30
2022-11-14T06:15:47.417Z,13.31
2022-11-14T06:18:35.750Z,13.32
2022-11-14T06:21:25.388Z,13.32
2022-11-14T06:24:12.643Z,13.34
2022-11-14T06:26:59.702Z,13.34
2022-11-14T06:29:46.966Z,13.33
2022-11-14T06:32:35.435Z,13.34
2022-11-14T06:35:22.627Z,13.34
2022-11-14T06:38:09.698Z,13.34
2022-11-14T06:41:04.486Z,13.34
2022-11-14T06:43:54.720Z,13.35
2022-11-14T06:46:42.218Z,13.35
2022-11-14T06:49:32.563Z,13.35
2022-11-14T06:52:22.428Z,13.35
2022-11-14T06:55:10.476Z,13.35
2022-11-14T06:57:57.463Z,13.34
2022-11-14T07:00:44.840Z,13.36
2022-11-14T07:03:31.987Z,13.35
2022-11-14T07:06:23.805Z,13.35
2022-11-14T07:09:12.436Z,13.35
2022-11-14T07:11:59.367Z,13.34
2022-11-14T07:14:48.010Z,13.34
2022-11-14T07:17:36.869Z,13.36
2022-11-14T07:20:23.603Z,13.34
2022-11-14T07:23:12.187Z,13.34
2022-11-14T07:26:03.031Z,13.34
2022-11-14T07:28:53.605Z,13.34
2022-11-14T07:31:42.811Z,13.33
2022-11-14T07:34:29.635Z,13.34
2022-11-14T07:37:16.810Z,13.33
2022-11-14T07:40:06.462Z,13.35
2022-11-14T07:42:53.143Z,13.34
2022-11-14T07:45:40.157Z,13.35
2022-11-14T07:48:27.945Z,13.34
2022-11-14T07:51:18.320Z,13.35
2022-11-14T07:54:05.487Z,13.35
2022-11-14T07:56:53.882Z,13.36
2022-11-14T07:59:41.174Z,13.36
2022-11-14T08:02:28.233Z,13.37
2022-11-14T08:05:15.388Z,13.37
2022-11-14T08:08:02.553Z,13.39
2022-11-14T08:10:49.575Z,13.38
2022-11-14T08:13:38.084Z,13.40
2022-11-14T08:16:25.412Z,13.39
2022-11-14T08:19:12.668Z,13.39
2022-11-14T08:22:00.098Z,13.40
2022-11-14T08:24:47.455Z,13.41
2022-11-14T08:27:34.707Z,13.43
2022-11-14T08:30:23.418Z,13.45
2022-11-14T08:33:10.447Z,13.45
2022-11-14T08:35:57.550Z,13.46
2022-11-14T08:38:44.739Z,13.48
2022-11-14T08:41:32.152Z,13.49
2022-11-14T08:44:19.255Z,13.50
2022-11-14T08:47:07.943Z,13.53
2022-11-14T08:49:55.126Z,13.53
2022-11-14T08:52:42.102Z,13.56
2022-11-14T08:55:29.025Z,13.58
2022-11-14T08:58:16.719Z,13.58
2022-11-14T09:01:05.460Z,13.61
2022-11-14T09:03:59.390Z,13.65
2022-11-14T09:06:47.420Z,13.64
2022-11-14T09:09:34.508Z,13.66
2022-11-14T09:12:21.653Z,13.70
2022-11-14T09:15:10.247Z,13.73
2022-11-14T09:17:58.608Z,13.76
2022-11-14T09:20:47.439Z,13.77
2022-11-14T09:23:35.148Z,13.79
2022-11-14T09:26:22.259Z,13.81
2022-11-14T09:29:09.544Z,13.83
2022-11-14T09:31:57.209Z,13.86
2022-11-14T09:34:45.549Z,13.89
2022-11-14T09:37:34.209Z,13.90
2022-11-14T09:40:21.162Z,13.91
2022-11-14T09:43:29.033Z,13.95
2022-11-14T09:46:23.382Z,13.96
2022-11-14T09:49:27.003Z,13.97
2022-11-14T09:52:27.949Z,13.98
2022-11-14T09:55:21.296Z,14.01
2022-11-14T09:58:18.614Z,14.03
2022-11-14T10:01:09.983Z,14.05
2022-11-14T10:04:09.421Z,14.08
2022-11-14T10:07:08.169Z,14.09
2022-11-14T10:10:06.876Z,14.10
2022-11-14T10:13:09.898Z,14.11
2022-11-14T10:16:07.160Z,14.13
2022-11-14T10:19:12.771Z,14.15
2022-11-14T10:22:26.833Z,14.16
2022-11-14T10:25:27.813Z,14.19
2022-11-14T10:28:42.117Z,14.20
2022-11-14T10:31:43.167Z,14.24
2022-11-14T10:34:35.328Z,14.26
2022-11-14T10:37:31.847Z,14.27
2022-11-14T10:40:22.419Z,14.28
2022-11-14T10:43:24.748Z,14.31
2022-11-14T10:46:18.702Z,14.31
2022-11-14T10:49:19.614Z,14.33
2022-11-14T10:52:12.344Z,14.33
2022-11-14T10:55:06.360Z,14.35
2022-11-14T10:57:53.405Z,14.35
2022-11-14T11:00:42.011Z,14.37
2022-11-14T11:03:43.683Z,14.38
2022-11-14T11:06:30.856Z,14.40
2022-11-14T11:09:44.908Z,14.43
2022-11-14T11:12:46.083Z,14.44
2022-11-14T11:15:42.484Z,14.47
2022-11-14T11:18:32.923Z,14.50
2022-11-14T11:21:22.355Z,14.51
2022-11-14T11:24:10.685Z,14.54
2022-11-14T11:27:20.318Z,14.56
2022-11-14T11:30:23.187Z,14.58
2022-11-14T11:33:26.699Z,14.62
2022-11-14T11:36:19.055Z,14.65
2022-11-14T11:39:06.151Z,14.68
2022-11-14T11:42:11.460Z,14.72
2022-11-14T11:45:03.799Z,14.76
2022-11-14T11:47:58.819Z,14.76
2022-11-14T11:50:48.234Z,14.77
2022-11-14T11:53:39.860Z,14.78
2022-11-14T11:56:32.193Z,14.81
2022-11-14T11:59:33.441Z,14.83
2022-11-14T12:02:25.087Z,14.83
2022-11-14T12:05:16.508Z,14.85
2022-11-14T12:08:09.702Z,14.85
2022-11-14T12:10:58.328Z,14.86
2022-11-14T12:14:27.102Z,14.87
2022-11-14T12:18:06.605Z,14.87
2022-11-14T12:21:09.235Z,14.86
2022-11-14T12:24:55.968Z,14.87
2022-11-14T12:28:04.467Z,14.89
2022-11-14T12:30:58.277Z,14.93
2022-11-14T12:33:53.091Z,14.96
2022-11-14T12:36:45.125Z,14.99
2022-11-14T12:39:32.959Z,15.01
2022-11-14T12:42:23.397Z,15.02
2022-11-14T12:46:02.189Z,15.04
2022-11-14T12:48:49.452Z,15.06
2022-11-14T12:51:52.385Z,15.09
2022-11-14T12:54:49.245Z,15.13
2022-11-14T12:57:49.666Z,15.14
2022-11-14T13:00:41.081Z,15.15
2022-11-14T13:03:46.898Z,15.17
2022-11-14T13:06:47.150Z,15.17
2022-11-14T13:09:43.094Z,15.19
2022-11-14T13:12:52.638Z,15.20
2022-11-14T13:16:08.889Z,15.19
2022-11-14T13:19:26.324Z,15.20
2022-11-14T13:22:40.544Z,15.22
2022-11-14T13:25:28.451Z,15.22
2022-11-14T13:28:48.892Z,15.23
2022-11-14T13:31:51.323Z,15.24
2022-11-14T13:34:46.281Z,15.25
2022-11-14T13:37:59.026Z,15.27
2022-11-14T13:40:55.919Z,15.26
2022-11-14T13:44:00.484Z,15.28
2022-11-14T13:47:09.608Z,15.30
2022-11-14T13:50:06.892Z,15.30
2022-11-14T13:52:54.591Z,15.31
2022-11-14T13:56:02.004Z,15.33
2022-11-14T13:59:05.166Z,15.34
2022-11-14T14:02:26.013Z,15.35
2022-11-14T14:05:27.410Z,15.35
2022-11-14T14:08:33.126Z,15.37
2022-11-14T14:11:43.009Z,15.39
2022-11-14T14:14:59.667Z,15.39
2022-11-14T14:17:59.857Z,15.41
2022-11-14T14:20:53.631Z,15.42
2022-11-14T14:23:47.391Z,15.42
2022-11-14T14:26:55.603Z,15.44
2022-11-14T14:29:53.428Z,15.43
2022-11-14T14:32:41.125Z,15.43
2022-11-14T14:35:35.619Z,15.44
2022-11-14T14:38:30.413Z,15.44
2022-11-14T14:41:20.777Z,15.44
2022-11-14T14:44:20.448Z,15.47
2022-11-14T14:47:18.304Z,15.47
2022-11-14T14:50:15.532Z,15.45
2022-11-14T14:53:04.772Z,15.47
2022-11-14T14:55:58.787Z,15.47
2022-11-14T14:58:46.023Z,15.45
2022-11-14T15:01:35.681Z,15.47
2022-11-14T15:04:25.812Z,15.46
2022-11-14T15:07:23.825Z,15.47
2022-11-14T15:10:24.540Z,15.47
2022-11-14T15:13:17.591Z,15.44
2022-11-14T15:16:05.861Z,15.43
2022-11-14T15:18:54.755Z,15.44
2022-11-14T15:21:42.988Z,15.43
2022-11-14T15:24:30.495Z,15.42
2022-11-14T15:27:20.598Z,15.41
2022-11-14T15:30:24.568Z,15.40
2022-11-14T15:33:30.174Z,15.40
2022-11-14T15:36:18.486Z,15.38
2022-11-14T15:39:24.164Z,15.38
2022-11-14T15:42:15.842Z,15.38
2022-11-14T15:45:24.150Z,15.37
2022-11-14T15:48:16.443Z,15.37
2022-11-14T15:51:03.832Z,15.38
2022-11-14T15:53:53.368Z,15.37
2022-11-14T15:56:40.527Z,15.36
2022-11-14T15:59:31.128Z,15.35
2022-11-14T16:02:22.964Z,15.36
2022-11-14T16:05:14.708Z,15.36
2022-11-14T16:08:01.801Z,15.35
2022-11-14T16:10:49.160Z,15.36
2022-11-14T16:13:36.829Z,15.35
2022-11-14T16:16:24.205Z,15.36
2022-11-14T16:19:16.145Z,15.36
2022-11-14T16:22:04.243Z,15.37
2022-11-14T16:24:51.925Z,15.38
2022-11-14T16:27:39.095Z,15.39
2022-11-14T16:30:29.396Z,15.40
2022-11-14T16:33:17.167Z,15.41
2022-11-14T16:36:06.281Z,15.41
2022-11-14T16:38:53.333Z,15.41
2022-11-14T16:41:41.250Z,15.41
2022-11-14T16:44:28.420Z,15.39
2022-11-14T16:47:16.445Z,15.40
2022-11-14T16:50:03.669Z,15.40
2022-11-14T16:52:52.071Z,15.40
2022-11-14T16:55:45.133Z,15.41
2022-11-14T16:58:32.682Z,15.40
2022-11-14T17:01:21.361Z,15.40
2022-11-14T17:04:08.893Z,15.40
2022-11-14T17:06:56.115Z,15.40
2022-11-14T17:09:44.501Z,15.40
2022-11-14T17:12:32.213Z,15.40
2022-11-14T17:15:19.273Z,15.41
2022-11-14T17:18:07.319Z,15.40
2022-11-14T17:20:54.766Z,15.40
2022-11-14T17:23:42.358Z,15.41
2022-11-14T17:26:31.044Z,15.40
2022-11-14T17:29:18.082Z,15.40
2022-11-14T17:32:05.345Z,15.40
2022-11-14T17:34:52.332Z,15.38
2022-11-14T17:37:39.351Z,15.37
2022-11-14T17:40:26.519Z,15.39
2022-11-14T17:43:17.030Z,15.39
2022-11-14T17:46:07.938Z,15.41
2022-11-14T17:48:58.970Z,15.41
2022-11-14T17:51:46.236Z,15.40
2022-11-14T17:54:37.475Z,15.41
2022-11-14T17:57:24.273Z,15.40
2022-11-14T18:00:14.586Z,15.41
2022-11-14T18:03:02.198Z,15.42
2022-11-14T18:05:49.164Z,15.42
2022-11-14T18:08:37.358Z,15.43
2022-11-14T18:11:24.438Z,15.42
2022-11-14T18:14:11.790Z,15.42
2022-11-14T18:17:14.050Z,15.42
2022-11-14T18:20:01.191Z,15.42
2022-11-14T18:22:48.516Z,15.42
2022-11-14T18:25:35.545Z,15.41
2022-11-14T18:28:23.571Z,15.42
2022-11-14T18:31:13.432Z,15.41
2022-11-14T18:34:02.750Z,15.40
2022-11-14T18:36:50.231Z,15.38
2022-11-14T18:39:37.241Z,15.38
2022-11-14T18:42:24.422Z,15.39
2022-11-14T18:45:12.000Z,15.39
2022-11-14T18:47:58.989Z,15.39
2022-11-14T18:50:48.298Z,15.39
2022-11-14T18:53:37.293Z,15.39
2022-11-14T18:56:25.469Z,15.38
2022-11-14T18:59:12.604Z,15.39
2022-11-14T19:01:59.592Z,15.38
2022-11-14T19:04:46.514Z,15.38
2022-11-14T19:07:35.323Z,15.38
2022-11-14T19:10:22.408Z,15.36
2022-11-14T19:13:09.735Z,15.35
2022-11-14T19:16:02.165Z,15.35
2022-11-14T19:18:49.116Z,15.35
2022-11-14T19:21:36.683Z,15.34
2022-11-14T19:24:24.792Z,15.33
2022-11-14T19:27:11.907Z,15.33
2022-11-14T19:29:59.342Z,15.33
2022-11-14T19:32:46.602Z,15.34
2022-11-14T19:35:33.673Z,15.34
2022-11-14T19:38:21.208Z,15.31
2022-11-14T19:41:16.731Z,15.32
2022-11-14T19:44:04.506Z,15.30
2022-11-14T19:46:51.887Z,15.31
2022-11-14T19:49:38.866Z,15.30
2022-11-14T19:52:25.923Z,15.29
2022-11-14T19:55:13.352Z,15.29
2022-11-14T19:58:01.993Z,15.28
2022-11-14T20:00:49.621Z,15.29
2022-11-14T20:03:37.717Z,15.27
2022-11-14T20:06:27.681Z,15.26
2022-11-14T20:09:14.831Z,15.26
2022-11-14T20:12:03.456Z,15.26
2022-11-14T20:14:52.350Z,15.25
2022-11-14T20:17:39.584Z,15.22
2022-11-14T20:20:26.551Z,15.21
2022-11-14T20:23:14.246Z,15.19
2022-11-14T20:26:01.880Z,15.18
2022-11-14T20:28:52.144Z,15.16
2022-11-14T20:31:40.984Z,15.16
2022-11-14T20:34:28.235Z,15.16
2022-11-14T20:37:16.337Z,15.16
2022-11-14T20:40:03.791Z,15.15
2022-11-14T20:42:50.936Z,15.16
2022-11-14T20:45:38.556Z,15.15
2022-11-14T20:48:28.740Z,15.15
2022-11-14T20:51:18.792Z,15.14
2022-11-14T20:54:07.061Z,15.13
2022-11-14T20:56:54.453Z,15.09
2022-11-14T20:59:41.451Z,15.05
2022-11-14T21:02:28.860Z,15.05
2022-11-14T21:05:17.868Z,15.04
2022-11-14T21:08:05.044Z,15.03
2022-11-14T21:11:01.334Z,15.05
2022-11-14T21:14:05.499Z,15.05
2022-11-14T21:16:52.613Z,15.05
2022-11-14T21:19:39.551Z,15.07
2022-11-14T21:22:28.096Z,15.07
2022-11-14T21:25:14.963Z,15.08
2022-11-14T21:28:03.842Z,15.08
2022-11-14T21:30:51.332Z,15.09
2022-11-14T21:33:38.615Z,15.08
2022-11-14T21:39:34.987Z,15.10
2022-11-14T21:42:22.235Z,15.11
2022-11-14T21:45:11.532Z,15.11
2022-11-14T21:47:58.672Z,15.10
2022-11-14T21:50:45.748Z,15.10
2022-11-14T21:53:33.729Z,15.13
2022-11-14T21:56:25.160Z,15.15
2022-11-14T21:59:18.786Z,15.14
2022-11-14T22:02:23.502Z,15.15
2022-11-14T22:05:11.015Z,15.14
2022-11-14T22:08:00.108Z,15.16
2022-11-14T22:10:47.476Z,15.17
2022-11-14T22:13:35.761Z,15.18
2022-11-14T22:16:22.700Z,15.19
2022-11-14T22:19:09.885Z,15.20
2022-11-14T22:21:56.767Z,15.21
2022-11-14T22:24:43.759Z,15.21
2022-11-14T22:27:30.822Z,15.21
2022-11-14T22:30:19.597Z,15.22
2022-11-14T22:33:07.101Z,15.22
2022-11-14T22:35:53.989Z,15.23
2022-11-14T22:38:41.898Z,15.25
2022-11-14T22:41:33.009Z,15.26
2022-11-14T22:44:20.710Z,15.27
2022-11-14T22:47:09.366Z,15.31
2022-11-14T22:49:56.376Z,15.32
2022-11-14T22:52:43.378Z,15.33
2022-11-14T22:55:30.369Z,15.35
2022-11-14T22:58:17.934Z,15.37
2022-11-14T23:01:13.199Z,15.37
2022-11-14T23:04:04.380Z,15.40
2022-11-14T23:06:51.674Z,15.41
2022-11-14T23:09:39.338Z,15.41
2022-11-14T23:12:26.479Z,15.42
2022-11-14T23:15:14.613Z,15.43
2022-11-14T23:18:02.307Z,15.45
2022-11-14T23:20:50.921Z,15.48
2022-11-14T23:23:38.370Z,15.49
2022-11-14T23:26:27.409Z,15.52
2022-11-14T23:29:15.079Z,15.53
2022-11-14T23:32:02.900Z,15.55
2022-11-14T23:34:49.866Z,15.57
2022-11-14T23:37:38.508Z,15.58
2022-11-14T23:40:26.037Z,15.59
2022-11-14T23:43:13.110Z,15.60
2022-11-14T23:46:00.373Z,15.61
2022-11-14T23:48:47.590Z,15.62
2022-11-14T23:51:34.746Z,15.63
2022-11-14T23:54:23.242Z,15.66
2022-11-14T23:57:10.274Z,15.65
2022-11-14T23:59:57.701Z,15.68
